Terminal Aerodrome Forecast
Issued by NWS Twin Cities, MN

Home | Current Version | Previous Version | Graphics & Text | Print | Product List | Glossary On
Versions: 1 2 3 4 5 6 7 8 9 10 11 12 13 14 15
034
FTUS43 KMPX 261125
TAFSTC
TAF
KSTC 261125Z 2612/2712 32004KT P6SM SKC
     FM261600 32008KT P6SM FEW060
     FM270100 29003KT P6SM SKC
     FM270700 22002KT P6SM SKC=

USA.gov is the U.S. government's official web portal to all federal, state and local government web resources and services.